Date,TemperatureHighF,TemperatureAvgF,TemperatureLowF,DewpointHighF,DewpointAvgF,DewpointLowF,HumidityHigh,HumidityAvg,HumidityLow,PressureMaxIn,PressureMinIn,WindSpeedMaxMPH,WindSpeedAvgMPH,GustSpeedMaxMPH,PrecipitationSumIn
2013-1-13,8.8,8.2,7.6,1.5,0.9,-0.1,72,72,71,30.29,30.28,18,10,18,0.00
2013-4-11,36.5,32.3,29.3,35.5,31.5,28.8,98,97,94,29.73,29.67,0,0,0,0.14
2013-4-12,32.4,30.6,28.6,30.3,27.8,26.9,96,89,82,29.94,29.74,0,0,0,0.03
2013-4-13,33.9,29.6,23.8,30.0,26.7,22.3,96,89,80,30.00,29.85,13,3,21,0.20
2013-4-14,39.2,37.0,32.7,38.6,35.1,30.6,98,93,85,29.83,29.38,22,12,33,0.41
2013-4-15,36.4,33.6,29.4,30.8,28.7,24.6,87,82,76,30.08,29.57,34,14,38,0.00
2013-4-18,31.0,30.2,29.2,29.9,29.0,27.7,96,95,94,29.84,29.78,32,13,32,0.02
2013-4-21,49.7,40.8,36.3,46.8,38.3,33.3,92,91,88,30.19,30.05,19,7,19,0.12
2013-4-22,36.2,31.6,29.4,33.3,29.9,27.3,97,93,88,30.27,30.14,33,12,33,0.00
2013-4-25,62.9,53.7,35.5,41.2,37.7,23.4,69,55,40,30.24,29.94,27,11,27,0.00
2013-4-26,67.8,55.7,41.6,43.5,38.3,28.1,83,56,24,30.15,29.94,21,5,21,0.00
2013-4-27,74.9,55.8,37.4,43.7,35.9,30.4,89,56,20,30.15,29.89,18,3,18,0.00
2013-5-3,48.7,42.7,32.3,31.6,25.1,21.0,77,51,34,30.36,30.15,31,13,31,0.00
2013-5-4,40.4,37.4,34.7,38.1,35.1,31.4,97,91,77,30.22,30.11,31,12,31,0.07
2013-5-5,51.4,44.7,38.4,46.5,41.7,37.3,96,90,80,30.22,30.14,14,4,14,0.01
2013-5-6,63.7,51.3,45.0,49.7,45.9,43.5,96,83,59,30.16,30.04,10,2,10,0.00
2013-5-7,73.7,57.6,39.5,52.7,46.4,38.5,97,70,34,30.08,29.93,24,5,24,0.00
2013-5-8,60.5,57.1,54.7,57.7,54.4,50.3,97,91,75,29.95,29.90,19,5,19,0.68
2013-5-9,60.6,55.7,47.5,54.8,53.1,44.6,96,91,81,30.08,29.90,32,12,32,0.06
2013-5-10,67.9,54.1,39.9,46.6,39.3,32.0,91,61,32,30.12,29.95,36,7,36,0.00
2013-5-11,54.5,47.2,38.7,41.1,24.5,14.1,71,43,21,30.26,30.03,35,11,36,0.00
2013-5-12,62.4,48.5,31.4,30.2,21.4,16.4,67,37,17,30.29,30.09,18,3,18,0.00
2013-5-13,88.2,65.9,44.2,52.1,41.1,27.3,54,42,25,30.10,29.68,32,9,32,0.00
2013-5-14,70.5,70.4,70.3,48.8,48.7,48.0,46,46,46,29.70,29.70,9,4,10,0.00
2013-5-17,83.8,75.2,68.3,64.3,62.9,61.0,82,67,47,29.78,29.73,19,7,19,0.28
2013-5-18,82.9,73.8,63.9,65.7,62.0,59.4,89,68,45,29.82,29.63,25,8,25,0.00
2013-5-19,72.6,67.0,62.8,64.8,62.5,59.9,94,86,71,29.66,29.45,33,7,33,0.17
2013-5-20,68.1,61.9,56.4,61.2,55.8,51.6,96,81,57,29.48,29.40,30,9,30,0.00
2013-5-21,60.2,55.7,51.9,55.9,52.1,49.8,96,88,76,29.66,29.45,18,6,18,0.01
2013-5-22,52.4,50.0,46.8,50.7,47.6,45.5,96,91,84,30.00,29.65,29,10,29,0.07
2013-5-23,65.7,55.3,44.7,46.6,40.6,28.3,90,62,25,30.27,30.00,26,10,26,0.00
2013-5-24,69.3,58.0,45.3,54.6,44.5,36.1,77,62,39,30.28,30.06,30,10,30,0.21
2013-5-25,71.9,58.5,51.1,58.5,52.0,48.6,94,80,62,30.09,30.00,29,11,29,0.00
2013-5-26,60.2,53.4,50.3,57.5,51.9,48.9,97,95,90,30.10,29.88,29,11,29,0.60
2013-5-27,62.6,57.0,53.2,58.7,55.5,52.2,99,95,87,29.97,29.72,28,9,28,0.85
2013-5-28,73.3,61.2,55.3,60.7,57.7,55.0,99,89,64,29.73,29.63,17,4,19,0.12
2013-5-29,77.7,67.5,57.7,69.3,63.7,56.6,99,89,68,29.72,29.46,29,10,29,0.20
2013-5-30,75.0,67.1,62.5,64.0,61.5,59.1,95,83,59,29.49,29.38,32,12,32,0.01
2013-6-2,68.4,64.1,56.2,40.0,36.8,34.0,54,37,29,30.06,29.98,16,2,16,0.00
2013-6-3,72.9,61.7,47.1,48.9,45.1,38.4,83,57,35,30.00,29.80,34,9,35,0.00
2013-6-4,64.5,60.2,56.6,59.9,56.0,48.8,97,86,60,30.00,29.78,28,6,28,0.47
2013-6-5,63.9,57.9,51.8,57.8,51.5,48.0,98,79,64,30.00,29.94,20,5,20,0.00
2013-6-6,62.1,56.8,52.0,54.1,51.8,48.8,95,84,63,30.01,29.93,15,5,18,0.01
2013-6-7,70.3,59.7,48.3,53.2,49.7,46.7,96,72,47,30.04,29.85,12,2,12,0.00
2013-6-8,59.4,57.1,54.5,58.1,53.7,48.5,96,89,72,29.85,29.66,33,10,33,2.03
2013-6-9,66.5,60.8,58.5,62.5,59.1,56.9,98,94,85,29.82,29.55,30,8,32,0.52
2013-6-10,76.3,63.5,55.5,64.2,58.5,54.8,99,85,60,29.86,29.76,17,4,17,0.00
2013-6-17,74.2,70.7,67.5,53.8,53.2,52.3,61,54,47,29.95,29.92,9,3,9,0.00
2013-6-18,82.0,71.8,59.6,59.6,54.7,50.8,84,57,35,30.00,29.90,14,4,14,0.00
2013-6-19,87.0,75.8,63.7,66.4,59.4,54.2,79,58,37,29.95,29.79,27,7,27,0.03
2013-6-20,88.8,79.1,68.7,70.8,67.3,63.6,86,68,52,29.85,29.71,33,12,33,0.00
2013-6-24,80.4,75.6,70.8,70.6,68.7,67.3,89,80,68,29.73,29.69,17,5,17,0.24
2013-6-25,88.2,83.2,76.8,72.8,71.1,69.0,83,68,56,29.62,29.60,19,4,19,0.00
2013-7-8,86.1,81.7,78.5,72.8,71.8,70.5,80,72,64,29.86,29.82,11,4,11,0.00
2013-7-9,84.5,77.5,66.2,73.6,68.7,63.5,92,75,57,29.92,29.75,31,6,31,0.19
2013-7-10,81.1,71.2,61.4,66.7,57.5,51.3,91,65,38,30.06,29.92,20,4,20,0.01
2013-7-11,84.6,73.9,62.6,64.7,60.2,56.5,82,64,48,30.04,29.87,24,8,26,0.00
2013-7-17,90.8,86.0,76.1,70.8,69.5,68.1,79,59,49,30.19,30.04,22,7,22,0.00
2013-7-18,91.2,81.7,71.6,71.5,69.7,67.5,90,69,47,30.05,29.75,28,8,28,0.00
2013-7-19,83.2,78.2,67.9,70.7,64.3,56.3,86,64,41,29.87,29.74,20,4,20,0.00
2013-7-20,81.2,71.5,61.8,67.9,63.3,58.5,91,77,54,29.93,29.82,26,3,26,0.06
2013-7-21,86.8,76.8,67.2,69.5,65.9,61.8,90,71,47,29.86,29.69,13,3,13,0.00
2013-7-22,83.8,74.9,64.6,72.7,66.5,59.1,98,77,52,29.85,29.64,26,6,26,0.00
2013-7-23,73.5,66.1,59.2,59.1,56.8,52.2,88,73,49,29.99,29.83,20,5,20,0.00
2013-7-24,80.3,69.8,56.8,62.7,58.5,53.2,89,69,50,30.05,29.94,15,2,15,0.00
2013-7-25,83.3,73.2,60.9,69.8,64.3,58.2,91,75,60,29.96,29.85,16,3,16,0.00
2013-7-26,70.7,64.2,57.1,66.0,53.0,46.2,91,68,47,30.09,29.91,27,8,27,0.00
2013-7-27,68.3,58.8,47.7,50.3,45.9,42.2,89,64,42,30.11,29.99,21,6,25,0.00
2013-7-28,73.1,62.1,48.1,52.8,47.1,43.5,85,60,40,30.04,29.99,17,4,17,0.00
2013-7-29,73.7,62.5,50.5,58.8,53.6,47.0,89,74,53,30.06,30.00,20,4,21,0.00
2013-7-30,76.4,69.4,63.2,64.4,62.3,58.7,95,79,65,30.05,30.00,12,3,13,0.00
2013-7-31,63.9,60.0,58.0,61.1,58.2,56.3,95,94,91,30.07,30.03,5,1,5,0.00
2013-8-1,84.7,76.2,61.1,67.1,63.8,56.8,86,67,46,30.01,29.82,20,4,21,0.00
2013-8-2,71.2,66.4,59.9,62.2,58.5,53.7,88,76,55,30.03,29.83,17,2,17,0.08
2013-8-3,76.0,65.7,52.7,56.3,52.9,48.1,92,66,41,30.18,30.03,18,4,18,0.00
2013-8-4,76.3,66.4,53.7,62.4,55.7,49.0,86,70,51,30.19,29.91,18,5,18,0.00
2013-8-5,84.2,73.8,67.3,69.5,64.9,60.1,96,76,46,29.91,29.77,16,4,17,0.00
2013-8-6,85.5,73.1,60.2,67.6,62.5,57.4,94,71,47,29.81,29.68,21,5,21,0.00
2013-8-7,77.5,68.0,59.9,60.6,58.5,56.1,92,73,52,29.98,29.78,17,5,17,0.00
2013-8-8,76.0,67.1,60.3,68.2,60.9,54.6,92,81,71,30.00,29.91,16,4,16,0.01
2013-8-9,78.0,68.3,55.4,63.6,57.3,51.9,97,71,45,30.11,29.97,16,3,16,0.01
2013-8-10,76.2,64.9,54.8,65.4,59.4,52.2,96,83,61,30.15,30.00,14,3,14,0.38
2013-8-11,76.9,68.9,62.2,67.0,64.3,61.0,98,86,66,30.05,29.96,19,3,19,0.70
2013-8-12,77.7,68.5,59.8,63.3,58.4,54.0,95,72,47,30.06,30.00,18,4,18,0.00
2013-8-13,74.0,65.3,55.4,58.0,53.7,45.0,92,69,37,30.15,30.06,18,4,18,0.00
2013-8-14,73.2,63.0,52.4,60.4,55.5,49.8,92,77,61,30.17,30.06,16,4,16,0.00
2013-8-15,67.5,62.2,55.2,60.5,57.9,53.5,95,86,74,30.12,30.05,18,3,18,0.00
2013-8-16,72.3,63.2,53.6,60.6,57.7,52.5,96,83,63,30.16,30.10,17,4,17,0.00
2013-8-17,77.7,66.7,55.4,63.3,59.1,53.7,94,78,56,30.13,30.04,23,5,23,0.00
2013-8-18,78.9,67.5,55.5,64.3,59.2,53.2,94,76,53,30.07,29.95,24,5,24,0.00
2013-8-19,84.8,74.1,62.8,72.6,67.0,60.5,93,79,65,29.99,29.80,22,6,22,0.00
2013-8-20,88.3,76.9,66.9,76.2,71.3,65.7,96,84,59,29.83,29.76,15,4,15,0.00
2013-8-21,79.5,74.5,70.7,74.0,71.2,68.6,95,90,78,29.92,29.76,15,4,15,0.03
2013-8-22,80.3,73.8,67.3,71.6,66.1,61.5,96,78,57,30.05,29.92,23,7,23,0.00
2013-8-23,85.0,74.4,63.7,74.6,68.3,61.2,93,82,69,30.04,29.89,21,6,21,0.00
2013-8-24,87.5,77.8,70.4,78.0,72.4,67.2,94,84,70,29.93,29.83,32,11,32,0.17
2013-8-25,89.6,81.0,72.3,77.7,73.7,69.5,91,79,65,29.93,29.86,27,9,27,0.00
2013-8-26,90.6,81.2,72.2,78.7,74.0,69.8,93,80,62,29.91,29.76,25,6,25,0.00
2013-8-27,91.9,81.9,71.2,78.5,73.6,67.8,91,77,61,29.82,29.73,14,3,14,0.00
2013-8-28,91.5,82.5,74.6,79.7,76.7,73.2,97,84,64,29.90,29.82,20,4,20,0.00
2013-8-29,90.5,80.4,69.3,77.1,71.9,64.0,94,77,46,29.90,29.78,21,4,21,0.00
2013-8-30,84.8,77.3,69.7,74.8,70.6,66.4,96,81,60,29.85,29.78,17,5,17,0.00
2013-8-31,87.7,74.6,62.2,76.2,67.8,60.5,98,81,56,29.83,29.69,41,4,41,0.93
2013-9-1,77.2,67.9,58.7,64.7,60.4,55.8,98,78,59,29.99,29.76,22,6,22,0.00
2013-9-2,75.5,63.2,51.4,57.1,53.1,48.9,94,72,40,30.08,29.98,14,2,14,0.00
2013-9-3,81.5,67.0,52.4,69.1,59.8,50.3,94,79,59,30.05,29.94,17,3,17,0.00
2013-9-4,87.0,74.3,62.3,71.3,66.1,61.0,96,77,48,30.06,29.97,13,2,13,0.00
2013-9-5,81.5,74.2,68.5,71.7,67.5,64.6,90,80,65,30.09,30.00,16,4,16,0.00
2013-9-6,88.8,76.1,64.6,74.8,68.0,62.2,93,77,55,30.01,29.79,22,6,22,0.00
2013-9-7,87.0,77.2,68.8,74.3,70.7,66.9,96,81,64,29.90,29.78,23,5,23,0.00
2013-9-8,78.5,72.9,68.1,71.6,68.9,66.3,95,88,79,29.91,29.75,19,6,19,0.00
2013-9-9,91.3,78.3,68.5,72.9,68.6,66.0,97,75,44,29.77,29.62,22,6,22,0.00
2013-9-10,78.0,72.1,66.6,68.3,66.3,63.4,95,82,64,29.97,29.75,12,2,12,0.00
2013-9-11,83.4,73.2,64.1,65.4,61.8,54.1,94,70,45,30.08,29.96,15,3,15,0.00
2013-9-12,75.5,66.8,56.9,54.5,49.7,45.8,78,56,37,30.20,30.08,16,5,20,0.00
2013-9-13,72.2,60.7,48.8,51.9,49.0,45.7,90,68,42,30.22,30.03,13,3,14,0.00
2013-9-14,67.6,58.6,48.0,58.0,52.1,45.4,91,79,61,30.03,29.77,24,6,24,0.01
2013-9-15,64.1,59.5,50.7,58.8,54.9,49.3,95,85,71,30.27,29.76,29,8,29,0.01
2013-9-16,68.0,56.7,48.0,52.0,49.8,47.2,98,79,54,30.35,30.16,18,5,18,0.01
2013-9-17,64.1,58.1,52.0,63.4,56.4,49.4,98,94,88,30.18,29.82,22,8,22,0.02
2013-9-18,86.4,74.6,64.2,72.3,68.9,63.5,98,84,61,29.82,29.56,24,8,25,0.00
2013-9-19,75.3,67.2,53.2,68.4,60.6,48.8,97,81,44,29.90,29.53,33,6,33,0.18
2013-9-20,62.4,53.8,45.6,49.8,45.9,42.0,92,76,49,29.99,29.89,24,6,24,0.00
2013-9-21,73.2,56.2,38.1,48.0,42.6,36.4,95,66,33,30.01,29.83,13,2,13,0.00
2013-9-22,81.5,66.7,51.9,55.2,51.3,44.9,89,61,34,29.84,29.68,30,9,30,0.00
2013-9-23,77.5,66.0,55.4,53.9,51.4,48.4,82,61,37,29.79,29.68,30,11,30,0.00
2013-9-24,74.7,63.0,55.9,57.5,54.1,51.2,89,74,52,29.88,29.78,13,4,17,0.00
2013-9-25,76.5,64.0,51.3,57.7,54.0,49.5,94,73,47,29.89,29.70,24,6,24,0.00
2013-9-26,86.0,71.9,60.8,61.3,59.4,57.9,93,68,40,29.74,29.64,36,12,36,0.00
2013-9-27,82.5,73.8,66.7,64.0,62.1,59.7,87,68,52,29.72,29.60,27,11,34,0.12
2013-9-28,74.3,57.7,47.6,62.1,48.7,40.6,96,74,44,29.94,29.57,29,8,29,0.30
2013-9-29,79.7,59.9,42.4,48.2,44.0,39.8,91,61,28,29.95,29.71,22,6,26,0.00
2013-9-30,83.0,66.7,53.3,53.1,49.0,45.4,79,55,31,29.72,29.53,24,7,24,0.00
2013-10-1,75.8,65.2,52.0,53.9,41.9,26.1,79,48,17,29.95,29.56,19,5,21,0.00
2013-10-2,80.1,64.6,47.7,65.7,49.9,33.5,92,61,29,29.97,29.73,27,8,31,0.11
2013-10-3,61.2,55.9,53.5,59.2,54.5,52.1,98,95,90,29.87,29.75,23,8,23,0.20
2013-10-4,62.5,56.8,53.5,60.8,55.7,49.3,98,96,83,29.86,29.65,30,13,30,0.01
2013-10-5,54.3,43.8,36.7,49.3,38.1,33.9,91,80,69,29.76,29.70,31,8,31,0.00
2013-10-6,57.1,47.1,43.3,50.0,42.1,37.6,96,84,52,29.97,29.75,26,6,26,0.04
2013-10-7,73.3,54.5,39.0,48.4,42.6,36.8,93,68,34,30.01,29.89,13,3,13,0.00
2013-10-8,76.0,61.7,49.1,48.7,45.1,42.4,79,57,35,29.89,29.72,36,10,36,0.00
2013-10-9,78.6,63.7,51.1,51.6,49.0,46.3,85,61,37,29.94,29.84,22,7,26,0.00
2013-10-10,79.7,66.3,55.2,55.0,51.5,48.1,82,61,39,29.92,29.69,33,11,33,0.00
2013-10-11,74.2,62.1,49.0,58.9,51.9,42.1,86,70,39,29.74,29.44,40,15,40,0.00
2013-10-12,60.6,51.4,43.2,42.4,33.6,24.1,81,54,26,30.25,29.74,33,9,33,0.00
2013-10-13,64.5,48.4,31.1,38.5,31.8,28.1,90,57,30,30.44,30.25,17,3,17,0.00
2013-10-14,51.8,47.2,44.4,49.3,41.5,32.8,97,82,49,30.33,29.69,33,10,33,1.91
2013-10-15,53.8,47.1,42.5,53.0,45.5,40.4,97,94,90,29.98,29.61,28,10,28,0.12
2013-10-16,54.1,43.8,35.9,41.3,37.3,33.2,95,79,49,30.05,29.92,19,5,20,0.00
2013-10-17,53.9,40.4,31.4,43.7,36.1,29.9,95,85,63,30.02,29.86,26,4,26,0.01
2013-10-18,50.2,40.4,31.1,36.0,31.8,25.7,91,74,39,30.10,29.92,27,5,27,0.00
2013-10-19,51.4,42.0,31.7,40.6,33.9,28.8,95,75,53,29.93,29.78,30,7,30,0.00
2013-10-20,52.7,42.5,35.0,42.7,35.5,29.7,89,76,63,30.01,29.65,32,8,32,0.00
2013-10-21,47.6,38.4,31.9,32.6,29.7,26.9,89,72,47,30.05,29.96,22,5,22,0.00
2013-10-22,38.9,35.1,31.5,31.8,29.7,26.7,96,82,62,30.13,29.94,15,3,15,0.07
2013-10-23,38.7,34.3,30.1,33.9,30.0,25.9,95,84,65,30.22,30.08,17,4,17,0.04
2013-10-24,46.5,36.8,30.2,33.4,28.9,26.8,90,75,48,30.39,30.22,26,6,26,0.00
2013-10-25,61.5,42.0,24.8,41.7,33.5,22.9,94,74,47,30.39,29.94,34,8,34,0.00
2013-10-26,47.2,39.9,28.9,39.9,29.9,24.7,88,68,47,30.22,29.95,23,5,23,0.00
2013-10-27,60.4,40.9,27.3,38.2,31.1,24.1,89,70,40,30.10,29.83,26,6,26,0.00
2013-10-28,40.7,36.7,32.1,31.9,29.2,25.9,87,74,62,30.38,30.10,30,14,30,0.00
2013-10-29,42.8,38.0,33.2,41.3,35.2,26.6,97,90,68,30.33,30.05,25,9,25,0.14
2013-10-30,46.9,41.4,37.9,46.0,40.8,36.9,98,97,95,30.05,29.75,19,5,19,0.03
2013-10-31,43.0,38.6,34.2,39.4,36.4,33.2,97,92,84,29.75,29.49,14,5,17,0.00
2013-11-1,52.1,42.6,36.1,41.2,37.9,34.0,95,84,63,29.96,29.53,29,9,29,0.00
2013-11-2,54.7,41.6,30.7,38.6,33.3,28.7,94,75,40,30.14,29.96,20,4,21,0.00
2013-11-3,56.1,45.4,34.5,38.2,33.1,29.5,84,64,41,30.04,29.70,46,14,46,0.01
2013-11-4,49.3,41.9,32.3,41.1,34.4,26.8,89,76,52,30.18,29.73,22,5,22,0.02
2013-11-5,36.9,31.7,27.7,31.1,28.4,24.6,97,88,70,30.24,30.07,26,7,26,0.00
2013-11-6,33.6,28.2,22.1,30.1,25.8,19.8,97,91,80,30.27,30.13,18,5,19,0.01
2013-11-7,36.3,27.6,17.7,30.4,24.2,16.0,96,88,67,30.41,30.25,19,4,19,0.00
2013-11-8,50.2,38.6,20.9,42.6,32.8,18.6,92,80,70,30.25,29.65,31,9,31,0.03
2013-11-9,47.1,39.6,28.5,38.1,32.8,24.3,88,77,56,30.36,29.80,31,10,31,0.00
2013-11-10,44.1,32.3,20.8,33.8,27.2,18.8,93,82,62,30.42,30.13,22,4,22,0.00
2013-11-11,38.5,19.5,8.0,33.7,13.1,3.3,90,76,64,30.87,30.15,34,10,34,0.00
2013-11-12,30.5,16.3,3.0,16.6,9.1,0.2,89,74,50,30.93,30.53,18,5,18,0.00
2013-11-13,58.5,37.1,20.1,37.1,27.0,13.9,82,68,42,30.53,29.92,27,8,27,0.00
2013-11-14,55.6,40.1,30.7,41.8,34.3,28.0,94,81,55,29.94,29.82,22,3,22,0.00
2013-11-15,54.9,39.0,26.6,43.0,33.9,25.3,96,83,60,29.87,29.55,23,5,23,0.00
2013-11-16,50.6,42.1,35.2,48.7,40.6,33.2,97,94,88,29.56,29.22,15,5,15,0.04